SWA3210 KMCO-KSTL
Flight info
| Callsign | SWA3210 |
|---|---|
| Flight time | N/A |
| Altitude | 38000 |
| Route | RDSOX1 JFRYS PATOY Q116 VLKNN GETME J151 VISQA BOOSH3 |
| Aircraft | B738/M-SDE2E3FGHIRWXY/LB1 |
Departure
| Time | 2026-04-24 20:30 |
|---|---|
| Airport | Orlando International Airport (KMCO) |
Arrival
| Time | N/A |
|---|---|
| Airport | St. Louis Lambert International Airport (KSTL) |
| Time | Latitude | Longitude | Altitude | Speed | Heading |
|---|---|---|---|---|---|
| 2026-04-24 19:47 | 28.43594 | -81.30052 | 91 ft | 0 kts | 258° |
| 2026-04-24 20:19 | 28.43595 | -81.30042 | 91 ft | 2 kts | 257° |
| 2026-04-24 20:19 | 28.43599 | -81.30026 | 91 ft | 2 kts | 258° |
| 2026-04-24 20:19 | 28.43602 | -81.30009 | 91 ft | 2 kts | 258° |
| 2026-04-24 20:20 | 28.43605 | -81.29992 | 91 ft | 2 kts | 257° |
| 2026-04-24 20:20 | 28.43608 | -81.29976 | 91 ft | 2 kts | 258° |
| 2026-04-24 20:20 | 28.43612 | -81.29959 | 91 ft | 2 kts | 258° |
| 2026-04-24 20:20 | 28.43615 | -81.29942 | 91 ft | 2 kts | 257° |
| 2026-04-24 20:21 | 28.43618 | -81.29926 | 91 ft | 2 kts | 258° |
| 2026-04-24 20:21 | 28.43621 | -81.29912 | 91 ft | 0 kts | 257° |
| 2026-04-24 20:21 | 28.43625 | -81.29898 | 91 ft | 2 kts | 230° |
| 2026-04-24 20:21 | 28.43637 | -81.29888 | 91 ft | 2 kts | 197° |
| 2026-04-24 20:22 | 28.43645 | -81.29887 | 91 ft | 1 kts | 178° |
| 2026-04-24 20:22 | 28.43651 | -81.29887 | 91 ft | 0 kts | 179° |
| 2026-04-24 20:26 | 28.43649 | -81.29887 | 91 ft | 2 kts | 179° |
| 2026-04-24 20:26 | 28.43597 | -81.29884 | 91 ft | 8 kts | 177° |
| 2026-04-24 20:27 | 28.43570 | -81.29879 | 91 ft | 0 kts | 158° |
| 2026-04-24 20:27 | 28.43548 | -81.29840 | 91 ft | 12 kts | 99° |
| 2026-04-24 20:27 | 28.43547 | -81.29744 | 91 ft | 11 kts | 86° |
| 2026-04-24 20:27 | 28.43550 | -81.29706 | 91 ft | 0 kts | 87° |
| 2026-04-24 20:28 | 28.43551 | -81.29674 | 91 ft | 10 kts | 88° |
| 2026-04-24 20:28 | 28.43543 | -81.29597 | 91 ft | 8 kts | 128° |
| 2026-04-24 20:29 | 28.43507 | -81.29584 | 91 ft | 8 kts | 182° |
| 2026-04-24 20:29 | 28.43271 | -81.29583 | 91 ft | 69 kts | 180° |
| 2026-04-24 20:29 | 28.42519 | -81.29576 | 88 ft | 142 kts | 179° |
| 2026-04-24 20:29 | 28.41361 | -81.29569 | 259 ft | 183 kts | 179° |
| 2026-04-24 20:30 | 28.40011 | -81.29598 | 897 ft | 201 kts | 182° |
| 2026-04-24 20:30 | 28.38657 | -81.30021 | 1643 ft | 218 kts | 212° |
| 2026-04-24 20:30 | 28.37600 | -81.31344 | 2199 ft | 237 kts | 235° |
| 2026-04-24 20:30 | 28.36602 | -81.32928 | 2795 ft | 254 kts | 230° |
| 2026-04-24 20:31 | 28.35461 | -81.34490 | 3441 ft | 267 kts | 229° |
| 2026-04-24 20:31 | 28.34244 | -81.36129 | 4284 ft | 272 kts | 230° |
| 2026-04-24 20:31 | 28.33037 | -81.37762 | 5148 ft | 275 kts | 232° |
| 2026-04-24 20:31 | 28.32089 | -81.39642 | 5976 ft | 278 kts | 254° |
| 2026-04-24 20:32 | 28.31754 | -81.41757 | 6945 ft | 274 kts | 264° |
| 2026-04-24 20:32 | 28.31537 | -81.43879 | 7845 ft | 274 kts | 264° |
| 2026-04-24 20:32 | 28.31281 | -81.46017 | 8616 ft | 278 kts | 263° |
| 2026-04-24 20:32 | 28.31012 | -81.48175 | 9428 ft | 280 kts | 263° |
| 2026-04-24 20:33 | 28.30739 | -81.50356 | 10203 ft | 282 kts | 263° |
| 2026-04-24 20:33 | 28.30504 | -81.52604 | 10614 ft | 297 kts | 271° |
| 2026-04-24 20:33 | 28.30922 | -81.54961 | 10797 ft | 318 kts | 295° |
| 2026-04-24 20:33 | 28.31963 | -81.57204 | 11197 ft | 331 kts | 297° |
| 2026-04-24 20:34 | 28.32893 | -81.59624 | 11727 ft | 339 kts | 291° |
| 2026-04-24 20:34 | 28.33687 | -81.62168 | 12425 ft | 342 kts | 290° |
| 2026-04-24 20:34 | 28.34470 | -81.64709 | 13046 ft | 346 kts | 290° |
| 2026-04-24 20:34 | 28.35274 | -81.67297 | 13730 ft | 348 kts | 290° |
| 2026-04-24 20:35 | 28.36065 | -81.69885 | 14405 ft | 350 kts | 289° |
| 2026-04-24 20:35 | 28.36840 | -81.72495 | 15020 ft | 353 kts | 289° |
| 2026-04-24 20:35 | 28.37622 | -81.75163 | 15664 ft | 356 kts | 289° |
| 2026-04-24 20:35 | 28.38410 | -81.77816 | 16230 ft | 360 kts | 290° |
| 2026-04-24 20:36 | 28.39214 | -81.80519 | 16812 ft | 363 kts | 289° |
| 2026-04-24 20:36 | 28.40020 | -81.83237 | 17436 ft | 364 kts | 289° |
| 2026-04-24 20:36 | 28.40812 | -81.85927 | 18041 ft | 365 kts | 289° |
| 2026-04-24 20:36 | 28.41589 | -81.88717 | 18528 ft | 370 kts | 286° |
| 2026-04-24 20:37 | 28.42163 | -81.91538 | 19100 ft | 372 kts | 282° |
| 2026-04-24 20:37 | 28.42480 | -81.94440 | 19624 ft | 376 kts | 275° |
| 2026-04-24 20:37 | 28.42558 | -81.97422 | 20142 ft | 379 kts | 273° |
| 2026-04-24 20:37 | 28.42620 | -82.00435 | 20637 ft | 381 kts | 274° |
| 2026-04-24 20:38 | 28.42707 | -82.03429 | 21069 ft | 385 kts | 274° |
| 2026-04-24 20:38 | 28.42790 | -82.06483 | 21589 ft | 386 kts | 274° |
| 2026-04-24 20:38 | 28.42854 | -82.09525 | 22003 ft | 390 kts | 273° |
| 2026-04-24 20:38 | 28.42905 | -82.12580 | 22468 ft | 391 kts | 273° |
| 2026-04-24 20:39 | 28.42947 | -82.15698 | 22906 ft | 394 kts | 273° |
| 2026-04-24 20:39 | 28.42992 | -82.18814 | 23305 ft | 397 kts | 273° |
| 2026-04-24 20:39 | 28.43047 | -82.21922 | 23755 ft | 398 kts | 273° |
| 2026-04-24 20:39 | 28.43107 | -82.25050 | 24160 ft | 401 kts | 273° |
| 2026-04-24 20:40 | 28.43166 | -82.28214 | 24595 ft | 402 kts | 273° |
| 2026-04-24 20:40 | 28.43214 | -82.31395 | 24969 ft | 404 kts | 273° |
| 2026-04-24 20:40 | 28.43290 | -82.34573 | 25399 ft | 404 kts | 275° |
| 2026-04-24 20:40 | 28.43606 | -82.37764 | 25705 ft | 406 kts | 282° |
| 2026-04-24 20:41 | 28.44367 | -82.40825 | 26107 ft | 405 kts | 292° |
| 2026-04-24 20:41 | 28.45515 | -82.43746 | 26454 ft | 406 kts | 297° |
| 2026-04-24 20:41 | 28.46932 | -82.46542 | 26755 ft | 409 kts | 305° |
| 2026-04-24 20:41 | 28.48776 | -82.48977 | 27044 ft | 412 kts | 316° |